Wetterdaten: Freitag, 26.09.2014
Datum Zeit Temperatur Luftfeuchte Luftdruck Regen Wind Richtung Richtung Taupunkt Windchill Windben
26.09.2014 00:00 6,2 C 90 % 1025,6 hPa 0,0 l/m 0,0 km/h (0 Bft) S-SO 157 4,7 C 22,8 C 0,0 km/h (0 Bft)
26.09.2014 00:10 5,8 C 92 % 1025,4 hPa 0,0 l/m 0,0 km/h (0 Bft) S-SO 157 4,6 C 22,8 C 0,0 km/h (0 Bft)
26.09.2014 00:20 5,5 C 92 % 1025,4 hPa 0,0 l/m 0,0 km/h (0 Bft) S-SO 157 4,3 C 22,8 C 0,0 km/h (0 Bft)
26.09.2014 00:30 5,5 C 92 % 1025,3 hPa 0,0 l/m 0,0 km/h (0 Bft) S-SO 157 4,3 C 22,8 C 0,0 km/h (0 Bft)
26.09.2014 00:40 5,7 C 92 % 1025,3 hPa 0,0 l/m 0,0 km/h (0 Bft) S-SO 157 4,5 C 22,8 C 0,0 km/h (0 Bft)
26.09.2014 00:50 5,2 C 92 % 1025,2 hPa 0,0 l/m 0,0 km/h (0 Bft) S-SO 157 4,0 C 22,8 C 0,0 km/h (0 Bft)
26.09.2014 01:00 5,2 C 92 % 1025,2 hPa 0,0 l/m 0,0 km/h (0 Bft) S-SO 157 4,0 C 22,8 C 0,0 km/h (0 Bft)
26.09.2014 01:10 4,7 C 92 % 1025,4 hPa 0,0 l/m 0,0 km/h (0 Bft) S-SO 157 3,5 C 22,8 C 0,0 km/h (0 Bft)
26.09.2014 01:20 4,6 C 92 % 1025,4 hPa 0,0 l/m 0,0 km/h (0 Bft) S-SO 157 3,4 C 22,8 C 0,0 km/h (0 Bft)
26.09.2014 01:30 4,8 C 92 % 1025,6 hPa 0,0 l/m 0,0 km/h (0 Bft) S-SO 157 3,6 C 22,8 C 0,0 km/h (0 Bft)
26.09.2014 01:40 4,3 C 92 % 1025,6 hPa 0,0 l/m 0,0 km/h (0 Bft) S-SO 157 3,1 C 22,8 C 0,0 km/h (0 Bft)
26.09.2014 01:50 4,0 C 92 % 1025,8 hPa 0,0 l/m 0,0 km/h (0 Bft) S-SO 157 2,8 C 22,8 C 0,0 km/h (0 Bft)
26.09.2014 02:00 4,1 C 92 % 1025,8 hPa 0,0 l/m 0,0 km/h (0 Bft) S-SO 157 2,9 C 22,8 C 0,0 km/h (0 Bft)
26.09.2014 02:10 4,8 C 93 % 1025,5 hPa 0,0 l/m 0,0 km/h (0 Bft) S-SO 157 3,8 C 22,8 C 0,0 km/h (0 Bft)
26.09.2014 02:20 4,4 C 93 % 1025,5 hPa 0,0 l/m 0,0 km/h (0 Bft) S-SO 157 3,4 C 22,8 C 0,0 km/h (0 Bft)
26.09.2014 02:30 4,2 C 92 % 1025,5 hPa 0,0 l/m 0,0 km/h (0 Bft) S-SO 157 3,0 C 22,8 C 0,0 km/h (0 Bft)
26.09.2014 02:40 4,7 C 93 % 1025,5 hPa 0,0 l/m 0,0 km/h (0 Bft) S-SO 157 3,7 C 22,8 C 0,0 km/h (0 Bft)
26.09.2014 02:50 4,2 C 93 % 1025,6 hPa 0,0 l/m 0,0 km/h (0 Bft) S-SO 157 3,2 C 22,8 C 0,0 km/h (0 Bft)
26.09.2014 02:58 4,1 C 93 % 1025,6 hPa 0,0 l/m 0,0 km/h (0 Bft) S-SO 157 3,1 C 22,8 C 0,0 km/h (0 Bft)
26.09.2014 03:00 4,1 C 93 % 1025,6 hPa 0,0 l/m 0,0 km/h (0 Bft) S-SO 157 3,1 C 22,8 C 0,0 km/h (0 Bft)
26.09.2014 03:10 4,0 C 93 % 1025,6 hPa 0,0 l/m 0,0 km/h (0 Bft) S-SO 157 3,0 C 22,8 C 0,0 km/h (0 Bft)
26.09.2014 03:20 4,1 C 93 % 1025,6 hPa 0,0 l/m 0,0 km/h (0 Bft) S-SO 157 3,1 C 22,8 C 0,0 km/h (0 Bft)
26.09.2014 03:30 4,5 C 93 % 1025,6 hPa 0,0 l/m 0,0 km/h (0 Bft) S-SO 157 3,5 C 22,8 C 0,0 km/h (0 Bft)
26.09.2014 03:40 4,5 C 93 % 1025,6 hPa 0,0 l/m 0,0 km/h (0 Bft) S-SO 157 3,5 C 22,8 C 0,0 km/h (0 Bft)
26.09.2014 03:50 4,3 C 93 % 1025,6 hPa 0,0 l/m 0,0 km/h (0 Bft) S-SO 157 3,3 C 22,8 C 0,0 km/h (0 Bft)
26.09.2014 04:00 4,2 C 93 % 1025,6 hPa 0,0 l/m 0,0 km/h (0 Bft) S-SO 157 3,2 C 22,8 C 0,0 km/h (0 Bft)
26.09.2014 04:10 4,2 C 93 % 1025,5 hPa 0,0 l/m 0,0 km/h (0 Bft) S-SO 157 3,2 C 22,8 C 0,0 km/h (0 Bft)
26.09.2014 04:20 4,1 C 93 % 1025,5 hPa 0,0 l/m 0,0 km/h (0 Bft) S-SO 157 3,1 C 22,8 C 0,0 km/h (0 Bft)
26.09.2014 04:30 4,2 C 93 % 1025,3 hPa 0,0 l/m 0,0 km/h (0 Bft) S-SO 157 3,2 C 22,8 C 0,0 km/h (0 Bft)
26.09.2014 04:40 4,2 C 93 % 1025,3 hPa 0,0 l/m 0,0 km/h (0 Bft) S-SO 157 3,2 C 22,8 C 0,0 km/h (0 Bft)
26.09.2014 04:50 3,8 C 93 % 1025,4 hPa 0,0 l/m 0,0 km/h (0 Bft) S-SO 157 2,8 C 22,8 C 0,0 km/h (0 Bft)
26.09.2014 05:00 3,4 C 93 % 1025,4 hPa 0,0 l/m 0,0 km/h (0 Bft) S-SO 157 2,4 C 22,8 C 0,0 km/h (0 Bft)
26.09.2014 05:10 3,3 C 93 % 1025,5 hPa 0,0 l/m 0,0 km/h (0 Bft) S-SO 157 2,3 C 22,8 C 0,0 km/h (0 Bft)
26.09.2014 05:20 3,2 C 93 % 1025,5 hPa 0,0 l/m 0,0 km/h (0 Bft) S-SO 157 2,2 C 22,8 C 0,0 km/h (0 Bft)
26.09.2014 05:30 3,0 C 93 % 1025,4 hPa 0,0 l/m 0,0 km/h (0 Bft) S-SO 157 2,0 C 22,8 C 0,0 km/h (0 Bft)
26.09.2014 05:40 3,6 C 93 % 1025,4 hPa 0,0 l/m 0,0 km/h (0 Bft) S-SO 157 2,6 C 22,8 C 0,0 km/h (0 Bft)
26.09.2014 05:50 3,5 C 94 % 1025,4 hPa 0,0 l/m 0,0 km/h (0 Bft) S-SO 157 2,6 C 22,8 C 0,0 km/h (0 Bft)
26.09.2014 06:00 3,4 C 94 % 1025,4 hPa 0,0 l/m 0,0 km/h (0 Bft) S-SO 157 2,5 C 22,8 C 0,0 km/h (0 Bft)
26.09.2014 06:10 3,5 C 94 % 1025,3 hPa 0,0 l/m 0,0 km/h (0 Bft) S-SO 157 2,6 C 22,8 C 0,0 km/h (0 Bft)
26.09.2014 06:20 3,9 C 94 % 1025,3 hPa 0,0 l/m 0,0 km/h (0 Bft) S-SO 157 3,0 C 22,8 C 0,0 km/h (0 Bft)
26.09.2014 06:30 4,2 C 94 % 1025,4 hPa 0,0 l/m 0,0 km/h (0 Bft) S-SO 157 3,3 C 22,8 C 0,0 km/h (0 Bft)
26.09.2014 06:40 4,6 C 94 % 1025,4 hPa 0,0 l/m 0,0 km/h (0 Bft) S-SO 157 3,7 C 22,8 C 0,0 km/h (0 Bft)
26.09.2014 06:50 5,0 C 94 % 1025,4 hPa 0,0 l/m 0,0 km/h (0 Bft) S-SO 157 4,1 C 22,8 C 0,0 km/h (0 Bft)
26.09.2014 07:00 5,5 C 95 % 1025,4 hPa 0,0 l/m 0,0 km/h (0 Bft) S-SO 157 4,8 C 22,8 C 0,0 km/h (0 Bft)
26.09.2014 07:10 5,8 C 95 % 1025,3 hPa 0,0 l/m 0,0 km/h (0 Bft) S-SO 157 5,1 C 22,8 C 0,0 km/h (0 Bft)
26.09.2014 07:20 5,9 C 95 % 1025,3 hPa 0,0 l/m 0,0 km/h (0 Bft) S-SO 157 5,2 C 22,8 C 0,0 km/h (0 Bft)
26.09.2014 07:30 5,9 C 95 % 1025,2 hPa 0,0 l/m 0,0 km/h (0 Bft) S-SO 157 5,2 C 22,8 C 0,0 km/h (0 Bft)
26.09.2014 07:40 5,7 C 95 % 1025,2 hPa 0,0 l/m 0,0 km/h (0 Bft) S-SO 157 5,0 C 22,8 C 0,0 km/h (0 Bft)
26.09.2014 07:50 5,8 C 95 % 1025,7 hPa 0,0 l/m 0,0 km/h (0 Bft) S-SO 157 5,1 C 22,8 C 0,0 km/h (0 Bft)
26.09.2014 08:00 5,9 C 95 % 1025,7 hPa 0,0 l/m 0,0 km/h (0 Bft) S-SO 157 5,2 C 22,8 C 0,0 km/h (0 Bft)
26.09.2014 08:10 6,1 C 94 % 1025,8 hPa 0,0 l/m 0,0 km/h (0 Bft) S-SO 157 5,2 C 22,8 C 0,0 km/h (0 Bft)
26.09.2014 08:20 6,3 C 94 % 1025,8 hPa 0,0 l/m 0,0 km/h (0 Bft) S-SO 157 5,4 C 22,8 C 0,0 km/h (0 Bft)
26.09.2014 08:30 6,4 C 95 % 1026,0 hPa 0,0 l/m 0,0 km/h (0 Bft) S-SO 157 5,7 C 22,8 C 0,0 km/h (0 Bft)
26.09.2014 08:40 6,7 C 95 % 1026,0 hPa 0,0 l/m 0,0 km/h (0 Bft) S-SO 157 6,0 C 22,8 C 0,0 km/h (0 Bft)
26.09.2014 08:48 7,1 C 94 % 1026,2 hPa 0,0 l/m 0,0 km/h (0 Bft) S-SO 157 6,2 C 22,8 C 0,0 km/h (0 Bft)
26.09.2014 08:50 7,1 C 94 % 1026,2 hPa 0,0 l/m 0,0 km/h (0 Bft) S-SO 157 6,2 C 22,8 C 0,0 km/h (0 Bft)
26.09.2014 09:00 7,6 C 94 % 1026,2 hPa 0,0 l/m 0,0 km/h (0 Bft) S-SO 157 6,7 C 22,8 C 0,0 km/h (0 Bft)
26.09.2014 09:10 7,6 C 94 % 1026,4 hPa 0,0 l/m 0,0 km/h (0 Bft) S-SO 157 6,7 C 22,8 C 0,0 km/h (0 Bft)
26.09.2014 09:20 8,0 C 94 % 1026,4 hPa 0,0 l/m 0,0 km/h (0 Bft) S-SO 157 7,1 C 22,8 C 0,0 km/h (0 Bft)
26.09.2014 09:30 8,5 C 94 % 1026,7 hPa 0,0 l/m 0,0 km/h (0 Bft) S-SO 157 7,6 C 22,8 C 0,0 km/h (0 Bft)
26.09.2014 09:40 8,7 C 94 % 1026,7 hPa 0,0 l/m 0,0 km/h (0 Bft) S-SO 157 7,8 C 22,8 C 0,0 km/h (0 Bft)
26.09.2014 09:50 9,1 C 94 % 1026,7 hPa 0,0 l/m 0,0 km/h (0 Bft) S-SO 157 8,2 C 22,8 C 0,0 km/h (0 Bft)
26.09.2014 10:00 9,4 C 94 % 1026,7 hPa 0,0 l/m 0,0 km/h (0 Bft) S-SO 157 8,5 C 22,8 C 0,0 km/h (0 Bft)
26.09.2014 10:10 9,7 C 94 % 1026,9 hPa 0,0 l/m 0,0 km/h (0 Bft) S-SO 157 8,8 C 22,8 C 0,0 km/h (0 Bft)
26.09.2014 10:20 10,0 C 94 % 1026,9 hPa 0,0 l/m 0,0 km/h (0 Bft) S-SO 157 9,1 C 22,8 C 0,0 km/h (0 Bft)
26.09.2014 10:30 10,5 C 94 % 1026,9 hPa 0,0 l/m 0,0 km/h (0 Bft) S-SO 157 9,6 C 22,8 C 0,0 km/h (0 Bft)
26.09.2014 10:40 10,6 C 93 % 1026,9 hPa 0,0 l/m 0,0 km/h (0 Bft) S-SO 157 9,5 C 22,8 C 0,0 km/h (0 Bft)
26.09.2014 10:50 11,5 C 92 % 1026,9 hPa 0,0 l/m 0,0 km/h (0 Bft) S-SO 157 10,2 C 22,8 C 0,0 km/h (0 Bft)
26.09.2014 11:00 12,3 C 87 % 1026,9 hPa 0,0 l/m 0,0 km/h (0 Bft) S-SO 157 10,2 C 22,8 C 0,0 km/h (0 Bft)
26.09.2014 11:10 13,6 C 81 % 1026,8 hPa 0,0 l/m 0,0 km/h (0 Bft) S-SO 157 10,4 C 22,8 C 0,0 km/h (0 Bft)
26.09.2014 11:20 14,7 C 73 % 1026,8 hPa 0,0 l/m 0,0 km/h (0 Bft) S-SO 157 9,9 C 22,8 C 0,0 km/h (0 Bft)
26.09.2014 11:30 14,6 C 69 % 1027,1 hPa 0,0 l/m 0,0 km/h (0 Bft) S-SO 157 9,0 C 22,8 C 0,0 km/h (0 Bft)
26.09.2014 11:40 17,3 C 68 % 1027,1 hPa 0,0 l/m 0,0 km/h (0 Bft) S-SO 157 11,3 C 22,8 C 0,0 km/h (0 Bft)
26.09.2014 11:48 16,6 C 68 % 1027,4 hPa 0,0 l/m 0,0 km/h (0 Bft) S-SO 157 10,7 C 22,8 C 0,0 km/h (0 Bft)
26.09.2014 11:50 16,6 C 68 % 1027,4 hPa 0,0 l/m 0,0 km/h (0 Bft) S-SO 157 10,7 C 22,8 C 0,0 km/h (0 Bft)
26.09.2014 12:00 15,8 C 64 % 1027,4 hPa 0,0 l/m 0,0 km/h (0 Bft) S-SO 157 9,0 C 22,8 C 0,0 km/h (0 Bft)
26.09.2014 12:10 15,5 C 61 % 1027,2 hPa 0,0 l/m 0,0 km/h (0 Bft) S-SO 157 8,0 C 22,8 C 0,0 km/h (0 Bft)
26.09.2014 12:20 16,5 C 58 % 1027,2 hPa 0,0 l/m 0,0 km/h (0 Bft) S-SO 157 8,2 C 22,8 C 0,0 km/h (0 Bft)
26.09.2014 12:30 18,1 C 50 % 1027,2 hPa 0,0 l/m 0,0 km/h (0 Bft) S-SO 157 7,5 C 22,8 C 0,0 km/h (0 Bft)
26.09.2014 12:40 16,5 C 52 % 1027,2 hPa 0,0 l/m 0,0 km/h (0 Bft) S-SO 157 6,6 C 22,8 C 0,0 km/h (0 Bft)
26.09.2014 12:50 15,8 C 57 % 1027,2 hPa 0,0 l/m 0,0 km/h (0 Bft) S-SO 157 7,3 C 22,8 C 0,0 km/h (0 Bft)
26.09.2014 13:00 15,7 C 55 % 1027,2 hPa 0,0 l/m 0,0 km/h (0 Bft) S-SO 157 6,7 C 22,8 C 0,0 km/h (0 Bft)
26.09.2014 13:10 15,6 C 56 % 1027,3 hPa 0,0 l/m 0,0 km/h (0 Bft) S-SO 157 6,9 C 22,8 C 0,0 km/h (0 Bft)
26.09.2014 13:20 15,7 C 56 % 1027,3 hPa 0,0 l/m 0,0 km/h (0 Bft) S-SO 157 6,9 C 22,8 C 0,0 km/h (0 Bft)
26.09.2014 13:30 15,4 C 56 % 1027,2 hPa 0,0 l/m 0,0 km/h (0 Bft) S-SO 157 6,7 C 22,8 C 0,0 km/h (0 Bft)
26.09.2014 13:40 15,3 C 56 % 1027,2 hPa 0,0 l/m 0,0 km/h (0 Bft) S-SO 157 6,6 C 22,8 C 0,0 km/h (0 Bft)
26.09.2014 13:50 15,3 C 55 % 1027,2 hPa 0,0 l/m 0,0 km/h (0 Bft) S-SO 157 6,3 C 22,8 C 0,0 km/h (0 Bft)
26.09.2014 14:00 15,6 C 56 % 1027,2 hPa 0,0 l/m 0,0 km/h (0 Bft) S-SO 157 6,9 C 22,8 C 0,0 km/h (0 Bft)
26.09.2014 14:10 15,0 C 57 % 1027,1 hPa 0,0 l/m 0,0 km/h (0 Bft) S-SO 157 6,6 C 22,8 C 0,0 km/h (0 Bft)
26.09.2014 14:20 15,0 C 56 % 1027,1 hPa 0,0 l/m 0,0 km/h (0 Bft) S-SO 157 6,3 C 22,8 C 0,0 km/h (0 Bft)
26.09.2014 14:30 14,8 C 58 % 1027,1 hPa 0,0 l/m 0,0 km/h (0 Bft) S-SO 157 6,6 C 22,8 C 0,0 km/h (0 Bft)
26.09.2014 14:40 14,7 C 58 % 1027,1 hPa 0,0 l/m 0,0 km/h (0 Bft) S-SO 157 6,5 C 22,8 C 0,0 km/h (0 Bft)
26.09.2014 14:48 14,3 C 58 % 1026,8 hPa 0,0 l/m 0,0 km/h (0 Bft) S-SO 157 6,2 C 22,8 C 0,0 km/h (0 Bft)
26.09.2014 14:50 14,3 C 58 % 1026,8 hPa 0,0 l/m 0,0 km/h (0 Bft) S-SO 157 6,2 C 22,8 C 0,0 km/h (0 Bft)
26.09.2014 15:00 14,6 C 61 % 1026,8 hPa 0,0 l/m 0,0 km/h (0 Bft) S-SO 157 7,2 C 22,8 C 0,0 km/h (0 Bft)
26.09.2014 15:10 14,7 C 59 % 1026,7 hPa 0,0 l/m 0,0 km/h (0 Bft) S-SO 157 6,8 C 22,8 C 0,0 km/h (0 Bft)
26.09.2014 15:20 14,8 C 60 % 1026,7 hPa 0,0 l/m 0,0 km/h (0 Bft) S-SO 157 7,1 C 22,8 C 0,0 km/h (0 Bft)
26.09.2014 15:30 14,9 C 59 % 1026,7 hPa 0,0 l/m 0,0 km/h (0 Bft) S-SO 157 7,0 C 22,8 C 0,0 km/h (0 Bft)
26.09.2014 15:40 14,9 C 60 % 1026,7 hPa 0,0 l/m 0,0 km/h (0 Bft) S-SO 157 7,2 C 22,8 C 0,0 km/h (0 Bft)
26.09.2014 15:50 14,9 C 61 % 1026,8 hPa 0,0 l/m 0,0 km/h (0 Bft) S-SO 157 7,4 C 22,8 C 0,0 km/h (0 Bft)
26.09.2014 16:00 14,7 C 62 % 1026,8 hPa 0,0 l/m 0,0 km/h (0 Bft) S-SO 157 7,5 C 22,8 C 0,0 km/h (0 Bft)
26.09.2014 16:10 14,7 C 63 % 1026,8 hPa 0,0 l/m 0,0 km/h (0 Bft) S-SO 157 7,7 C 22,8 C 0,0 km/h (0 Bft)
26.09.2014 16:20 14,8 C 62 % 1026,8 hPa 0,0 l/m 0,0 km/h (0 Bft) S-SO 157 7,6 C 22,8 C 0,0 km/h (0 Bft)
26.09.2014 16:30 14,8 C 62 % 1026,8 hPa 0,0 l/m 0,0 km/h (0 Bft) S-SO 157 7,6 C 22,8 C 0,0 km/h (0 Bft)
26.09.2014 16:40 14,9 C 63 % 1026,8 hPa 0,0 l/m 0,0 km/h (0 Bft) S-SO 157 7,9 C 22,8 C 0,0 km/h (0 Bft)
26.09.2014 16:50 14,8 C 63 % 1026,9 hPa 0,0 l/m 0,0 km/h (0 Bft) S-SO 157 7,8 C 22,8 C 0,0 km/h (0 Bft)
26.09.2014 17:00 14,7 C 64 % 1026,9 hPa 0,0 l/m 0,0 km/h (0 Bft) S-SO 157 8,0 C 22,8 C 0,0 km/h (0 Bft)
26.09.2014 17:10 14,5 C 65 % 1026,9 hPa 0,0 l/m 0,0 km/h (0 Bft) S-SO 157 8,0 C 22,8 C 0,0 km/h (0 Bft)
26.09.2014 17:20 14,1 C 65 % 1026,9 hPa 0,0 l/m 0,0 km/h (0 Bft) S-SO 157 7,6 C 22,8 C 0,0 km/h (0 Bft)
26.09.2014 17:30 14,0 C 66 % 1026,8 hPa 0,0 l/m 0,0 km/h (0 Bft) S-SO 157 7,7 C 22,8 C 0,0 km/h (0 Bft)
26.09.2014 17:40 14,3 C 66 % 1026,8 hPa 0,0 l/m 0,0 km/h (0 Bft) S-SO 157 8,0 C 22,8 C 0,0 km/h (0 Bft)
26.09.2014 17:48 14,2 C 66 % 1026,5 hPa 0,0 l/m 0,0 km/h (0 Bft) S-SO 157 7,9 C 22,8 C 0,0 km/h (0 Bft)
26.09.2014 17:50 14,2 C 66 % 1026,5 hPa 0,0 l/m 0,0 km/h (0 Bft) S-SO 157 7,9 C 22,8 C 0,0 km/h (0 Bft)
26.09.2014 18:00 14,4 C 67 % 1026,5 hPa 0,0 l/m 0,0 km/h (0 Bft) S-SO 157 8,4 C 22,8 C 0,0 km/h (0 Bft)
26.09.2014 18:10 14,3 C 67 % 1026,6 hPa 0,0 l/m 0,0 km/h (0 Bft) S-SO 157 8,3 C 22,8 C 0,0 km/h (0 Bft)
26.09.2014 18:20 14,0 C 68 % 1026,6 hPa 0,0 l/m 0,0 km/h (0 Bft) S-SO 157 8,2 C 22,8 C 0,0 km/h (0 Bft)
26.09.2014 18:30 13,6 C 69 % 1026,7 hPa 0,0 l/m 0,0 km/h (0 Bft) S-SO 157 8,0 C 22,8 C 0,0 km/h (0 Bft)
26.09.2014 18:40 13,1 C 70 % 1026,7 hPa 0,0 l/m 0,0 km/h (0 Bft) S-SO 157 7,8 C 22,8 C 0,0 km/h (0 Bft)
26.09.2014 18:50 12,8 C 72 % 1026,8 hPa 0,0 l/m 0,0 km/h (0 Bft) S-SO 157 7,9 C 22,8 C 0,0 km/h (0 Bft)
26.09.2014 19:00 12,7 C 75 % 1026,8 hPa 0,0 l/m 0,0 km/h (0 Bft) S-SO 157 8,4 C 22,8 C 0,0 km/h (0 Bft)
26.09.2014 19:10 12,3 C 76 % 1026,9 hPa 0,0 l/m 0,0 km/h (0 Bft) S-SO 157 8,2 C 22,8 C 0,0 km/h (0 Bft)
26.09.2014 19:20 12,1 C 77 % 1026,9 hPa 0,0 l/m 0,0 km/h (0 Bft) S-SO 157 8,2 C 22,8 C 0,0 km/h (0 Bft)
26.09.2014 19:30 11,8 C 78 % 1027,1 hPa 0,0 l/m 0,0 km/h (0 Bft) S-SO 157 8,1 C 22,8 C 0,0 km/h (0 Bft)
26.09.2014 19:40 11,6 C 78 % 1027,1 hPa 0,0 l/m 0,0 km/h (0 Bft) S-SO 157 7,9 C 22,8 C 0,0 km/h (0 Bft)
26.09.2014 19:50 11,6 C 79 % 1027,1 hPa 0,0 l/m 0,0 km/h (0 Bft) S-SO 157 8,1 C 22,8 C 0,0 km/h (0 Bft)
26.09.2014 20:00 11,5 C 80 % 1027,1 hPa 0,0 l/m 0,0 km/h (0 Bft) S-SO 157 8,2 C 22,8 C 0,0 km/h (0 Bft)
26.09.2014 20:10 11,5 C 81 % 1027,2 hPa 0,0 l/m 0,0 km/h (0 Bft) S-SO 157 8,4 C 22,8 C 0,0 km/h (0 Bft)
26.09.2014 20:20 11,5 C 81 % 1027,2 hPa 0,0 l/m 0,0 km/h (0 Bft) S-SO 157 8,4 C 22,8 C 0,0 km/h (0 Bft)
26.09.2014 20:30 11,6 C 82 % 1027,4 hPa 0,0 l/m 0,0 km/h (0 Bft) S-SO 157 8,6 C 22,8 C 0,0 km/h (0 Bft)
26.09.2014 20:40 11,6 C 81 % 1027,4 hPa 0,0 l/m 0,0 km/h (0 Bft) S-SO 157 8,5 C 22,8 C 0,0 km/h (0 Bft)
26.09.2014 20:48 11,5 C 81 % 1027,6 hPa 0,0 l/m 0,0 km/h (0 Bft) S-SO 157 8,4 C 22,8 C 0,0 km/h (0 Bft)
26.09.2014 20:50 11,5 C 81 % 1027,6 hPa 0,0 l/m 0,0 km/h (0 Bft) S-SO 157 8,4 C 22,8 C 0,0 km/h (0 Bft)
26.09.2014 21:00 11,4 C 81 % 1027,6 hPa 0,0 l/m 0,0 km/h (0 Bft) S-SO 157 8,3 C 22,8 C 0,0 km/h (0 Bft)
26.09.2014 21:10 11,4 C 80 % 1027,7 hPa 0,0 l/m 0,0 km/h (0 Bft) S-SO 157 8,1 C 22,8 C 0,0 km/h (0 Bft)
26.09.2014 21:20 11,3 C 79 % 1027,7 hPa 0,0 l/m 0,0 km/h (0 Bft) S-SO 157 7,8 C 22,8 C 0,0 km/h (0 Bft)
26.09.2014 21:30 11,2 C 79 % 1027,9 hPa 0,0 l/m 0,0 km/h (0 Bft) S-SO 157 7,7 C 22,8 C 0,0 km/h (0 Bft)
26.09.2014 21:40 11,1 C 79 % 1027,9 hPa 0,0 l/m 0,0 km/h (0 Bft) S-SO 157 7,6 C 22,8 C 0,0 km/h (0 Bft)
26.09.2014 21:50 10,9 C 81 % 1027,8 hPa 0,0 l/m 0,0 km/h (0 Bft) S-SO 157 7,8 C 22,8 C 0,0 km/h (0 Bft)
26.09.2014 22:00 10,7 C 81 % 1027,8 hPa 0,0 l/m 0,0 km/h (0 Bft) S-SO 157 7,6 C 22,8 C 0,0 km/h (0 Bft)
26.09.2014 22:10 10,6 C 82 % 1027,9 hPa 0,0 l/m 0,0 km/h (0 Bft) S-SO 157 7,7 C 22,8 C 0,0 km/h (0 Bft)
26.09.2014 22:20 10,4 C 83 % 1027,9 hPa 0,0 l/m 0,0 km/h (0 Bft) S-SO 157 7,6 C 22,8 C 0,0 km/h (0 Bft)
26.09.2014 22:30 10,5 C 83 % 1028,2 hPa 0,0 l/m 0,0 km/h (0 Bft) S-SO 157 7,7 C 22,8 C 0,0 km/h (0 Bft)
26.09.2014 22:40 10,7 C 84 % 1028,2 hPa 0,0 l/m 0,0 km/h (0 Bft) S-SO 157 8,1 C 22,8 C 0,0 km/h (0 Bft)
26.09.2014 22:50 10,6 C 84 % 1028,2 hPa 0,0 l/m 0,0 km/h (0 Bft) S-SO 157 8,0 C 22,8 C 0,0 km/h (0 Bft)
26.09.2014 23:00 10,5 C 84 % 1028,2 hPa 0,0 l/m 0,0 km/h (0 Bft) S-SO 157 7,9 C 22,8 C 0,0 km/h (0 Bft)
26.09.2014 23:10 10,4 C 84 % 1028,1 hPa 0,0 l/m 0,0 km/h (0 Bft) S-SO 157 7,8 C 22,8 C 0,0 km/h (0 Bft)
26.09.2014 23:20 10,3 C 84 % 1028,1 hPa 0,0 l/m 0,0 km/h (0 Bft) S-SO 157 7,7 C 22,8 C 0,0 km/h (0 Bft)
26.09.2014 23:30 9,8 C 84 % 1028,3 hPa 0,0 l/m 0,0 km/h (0 Bft) S-SO 157 7,2 C 22,8 C 0,0 km/h (0 Bft)
26.09.2014 23:40 9,7 C 84 % 1028,3 hPa 0,0 l/m 0,0 km/h (0 Bft) S-SO 157 7,1 C 22,8 C 0,0 km/h (0 Bft)
26.09.2014 23:48 9,7 C 84 % 1028,2 hPa 0,0 l/m 0,0 km/h (0 Bft) S-SO 157 7,1 C 22,8 C 0,0 km/h (0 Bft)
26.09.2014 23:50 9,7 C 84 % 1028,2 hPa 0,0 l/m 0,0 km/h (0 Bft) S-SO 157 7,1 C 22,8 C 0,0 km/h (0 Bft)
_ Min-Zeit 05:30 12:30 07:40 - 23:50 - - 05:30 23:50 23:50
Minimum _ 3,0 C 50 % 1025,2 hPa - 0,0 km/h (0 Bft) - - 2,0 C 22,8 C 0,0 km/h (0 Bft)
_ Max-Zeit 12:30 08:40 23:40 23:50 23:50 - - 11:40 23:50 23:50
Maximum _ 18,1 C 95 % 1028,3 hPa 0,0 l/m 0,0 km/h
S-SO (0 Bft)
- - 11,3 C 22,8 C 0,0 km/h
S-SO (0 Bft)
Durchschnitt _ 9,8 C 81 % 1026,5 hPa #0,0 l/m 0,0 km/h (0 Bft) - - - 6,3 C 22,8 C 0,0 km/h (0 Bft)